createdAt,value
2023-03-11T00:02:42.818Z,17.15
2023-03-11T00:06:42.799Z,17.15
2023-03-11T00:10:42.780Z,17.13
2023-03-11T00:14:42.724Z,17.17
2023-03-11T00:18:42.685Z,17.20
2023-03-11T00:22:42.666Z,17.17
2023-03-11T00:26:42.614Z,17.16
2023-03-11T00:30:42.757Z,17.10
2023-03-11T00:34:42.536Z,17.08
2023-03-11T00:38:42.529Z,17.03
2023-03-11T00:42:42.475Z,17.03
2023-03-11T00:46:42.441Z,16.98
2023-03-11T00:50:42.652Z,16.89
2023-03-11T00:54:42.795Z,16.86
2023-03-11T00:58:42.752Z,16.91
2023-03-11T01:02:42.739Z,16.88
2023-03-11T01:06:45.587Z,16.83
2023-03-11T01:10:42.648Z,16.79
2023-03-11T01:14:42.611Z,16.69
2023-03-11T01:18:42.574Z,16.71
2023-03-11T01:22:42.561Z,16.76
2023-03-11T01:26:42.512Z,16.68
2023-03-11T01:30:42.517Z,16.55
2023-03-11T01:34:42.408Z,16.59
2023-03-11T01:38:42.382Z,16.60
2023-03-11T01:42:42.361Z,16.48
2023-03-11T01:46:42.343Z,16.57
2023-03-11T01:50:42.492Z,16.48
2023-03-11T01:54:42.676Z,16.44
2023-03-11T01:58:42.806Z,16.33
2023-03-11T02:02:42.871Z,16.41
2023-03-11T02:06:42.758Z,16.33
2023-03-11T02:10:42.729Z,16.36
2023-03-11T02:14:42.670Z,16.36
2023-03-11T02:18:42.650Z,16.28
2023-03-11T02:22:42.611Z,16.17
2023-03-11T02:26:42.579Z,16.22
2023-03-11T02:30:42.578Z,16.10
2023-03-11T02:34:42.486Z,16.15
2023-03-11T02:38:42.463Z,16.04
2023-03-11T02:42:42.453Z,16.09
2023-03-11T02:46:42.461Z,16.04
2023-03-11T02:50:42.613Z,15.93
2023-03-11T02:54:42.587Z,16.01
2023-03-11T02:58:42.552Z,15.92
2023-03-11T03:02:42.510Z,15.89
2023-03-11T03:06:42.461Z,15.87
2023-03-11T03:10:42.432Z,15.90
2023-03-11T03:14:42.402Z,15.87
2023-03-11T03:18:42.363Z,15.86
2023-03-11T03:22:42.348Z,15.81
2023-03-11T03:26:42.310Z,15.81
2023-03-11T03:30:42.237Z,15.65
2023-03-11T03:34:42.219Z,15.79
2023-03-11T03:38:42.189Z,15.73
2023-03-11T03:42:42.122Z,15.77
2023-03-11T03:46:42.186Z,15.65
2023-03-11T03:50:42.265Z,15.55
2023-03-11T03:54:42.432Z,15.51
2023-03-11T03:58:42.561Z,15.54
2023-03-11T04:02:42.532Z,15.54
2023-03-11T04:06:42.485Z,15.54
2023-03-11T04:10:42.444Z,15.39
2023-03-11T04:14:42.411Z,15.48
2023-03-11T04:18:42.375Z,15.39
2023-03-11T04:22:42.347Z,15.48
2023-03-11T04:26:42.343Z,15.37
2023-03-11T04:30:42.291Z,15.37
2023-03-11T04:34:42.262Z,15.39
2023-03-11T04:38:42.172Z,15.40
2023-03-11T04:42:42.349Z,15.33
2023-03-11T04:46:42.553Z,15.31
2023-03-11T04:50:42.729Z,15.39
2023-03-11T04:54:42.966Z,15.37
2023-03-11T04:58:42.911Z,15.39
2023-03-11T05:02:42.871Z,15.41
2023-03-11T05:06:42.810Z,15.49
2023-03-11T05:10:42.780Z,15.40
2023-03-11T05:14:42.741Z,15.39
2023-03-11T05:18:42.724Z,15.37
2023-03-11T05:22:42.721Z,15.43
2023-03-11T05:26:42.633Z,15.31
2023-03-11T05:30:42.597Z,15.33
2023-03-11T05:34:42.568Z,15.34
2023-03-11T05:38:42.565Z,15.34
2023-03-11T05:42:42.524Z,15.33
2023-03-11T05:46:42.566Z,15.33
2023-03-11T05:50:42.420Z,15.33
2023-03-11T05:54:42.387Z,15.33
2023-03-11T05:58:42.430Z,15.30
2023-03-11T06:02:42.325Z,15.22
2023-03-11T06:06:42.277Z,15.25
2023-03-11T06:10:42.230Z,15.20
2023-03-11T06:14:42.210Z,15.19
2023-03-11T06:18:42.171Z,15.22
2023-03-11T06:22:42.546Z,15.22
2023-03-11T06:26:42.164Z,15.10
2023-03-11T06:30:42.033Z,15.19
2023-03-11T06:34:42.015Z,15.14
2023-03-11T06:38:41.985Z,15.19
2023-03-11T06:42:41.933Z,15.16
2023-03-11T06:46:41.939Z,15.16
2023-03-11T06:50:41.878Z,15.13
2023-03-11T06:54:41.963Z,15.15
2023-03-11T06:58:42.012Z,15.13
2023-03-11T07:02:42.102Z,15.12
2023-03-11T07:06:42.193Z,15.14
2023-03-11T07:10:42.301Z,15.17
2023-03-11T07:14:42.489Z,15.17
2023-03-11T07:18:42.666Z,15.17
2023-03-11T07:22:42.836Z,15.19
2023-03-11T07:26:44.505Z,15.14
2023-03-11T07:30:43.097Z,15.21
2023-03-11T07:34:43.210Z,15.21
2023-03-11T07:38:43.357Z,15.15
2023-03-11T07:42:43.531Z,15.17
2023-03-11T07:46:43.706Z,15.17
2023-03-11T07:50:43.683Z,15.17
2023-03-11T07:54:43.624Z,15.14
2023-03-11T07:58:45.607Z,15.11
2023-03-11T08:02:43.655Z,15.14
2023-03-11T08:06:43.783Z,15.14
2023-03-11T08:10:43.758Z,15.08
2023-03-11T08:14:43.703Z,15.12
2023-03-11T08:18:43.671Z,15.17
2023-03-11T08:22:57.236Z,15.20
2023-03-11T08:26:44.589Z,15.13
2023-03-11T08:30:43.550Z,15.17
2023-03-11T08:34:43.694Z,15.14
2023-03-11T08:38:43.913Z,15.17
2023-03-11T08:42:44.096Z,15.18
2023-03-11T08:46:44.387Z,15.13
2023-03-11T08:50:54.032Z,15.15
2023-03-11T08:54:45.503Z,15.15
2023-03-11T08:58:44.458Z,15.10
2023-03-11T09:02:44.565Z,15.10
2023-03-11T09:06:44.721Z,15.07
2023-03-11T09:10:44.939Z,15.07
2023-03-11T09:14:45.099Z,15.07
2023-03-11T09:18:45.344Z,15.06
2023-03-11T09:22:45.504Z,15.03
2023-03-11T09:26:45.687Z,15.04
2023-03-11T09:30:45.801Z,15.06
2023-03-11T09:34:45.958Z,15.00
2023-03-11T09:38:46.143Z,15.00
2023-03-11T09:42:46.323Z,15.06
2023-03-11T09:46:46.506Z,15.05
2023-03-11T09:50:46.610Z,15.00
2023-03-11T09:54:46.756Z,14.99
2023-03-11T09:58:46.875Z,14.90
2023-03-11T10:02:47.085Z,14.88
2023-03-11T10:06:47.037Z,14.85
2023-03-11T10:10:47.090Z,14.80
2023-03-11T10:14:47.153Z,14.74
2023-03-11T10:18:47.139Z,14.71
2023-03-11T10:22:47.144Z,14.60
2023-03-11T10:26:47.366Z,14.69
2023-03-11T10:30:47.536Z,14.62
2023-03-11T10:34:47.737Z,14.71
2023-03-11T10:38:47.945Z,14.70
2023-03-11T10:42:48.123Z,14.60
2023-03-11T10:46:48.339Z,14.54
2023-03-11T10:50:48.511Z,14.57
2023-03-11T10:54:48.706Z,14.60
2023-03-11T10:58:48.906Z,14.64
2023-03-11T11:02:49.076Z,14.66
2023-03-11T11:06:49.275Z,14.67
2023-03-11T11:10:49.452Z,14.51
2023-03-11T11:14:49.591Z,14.43
2023-03-11T11:18:49.705Z,14.50
2023-03-11T11:22:49.865Z,14.43
2023-03-11T11:26:49.983Z,14.51
2023-03-11T11:30:50.071Z,14.42
2023-03-11T11:34:50.097Z,14.48
2023-03-11T11:38:50.165Z,14.45
2023-03-11T11:42:50.191Z,14.54
2023-03-11T11:46:50.221Z,14.54
2023-03-11T11:50:50.445Z,14.58
2023-03-11T11:54:50.417Z,14.48
2023-03-11T11:58:50.394Z,14.49
2023-03-11T12:02:50.371Z,14.49
2023-03-11T12:06:50.300Z,14.44
2023-03-11T12:10:50.285Z,14.41
2023-03-11T12:14:50.229Z,14.43
2023-03-11T12:18:50.193Z,14.40
2023-03-11T12:22:50.149Z,14.37
2023-03-11T12:26:50.159Z,14.40
2023-03-11T12:30:50.203Z,14.45
2023-03-11T12:34:50.051Z,14.46
2023-03-11T12:38:50.017Z,14.39
2023-03-11T12:42:49.976Z,14.45
2023-03-11T12:46:49.994Z,14.43
2023-03-11T12:50:49.899Z,14.51
2023-03-11T12:54:49.880Z,14.46
2023-03-11T12:58:49.819Z,14.51
2023-03-11T13:02:49.857Z,14.55
2023-03-11T13:06:49.762Z,14.49
2023-03-11T13:10:49.727Z,14.51
2023-03-11T13:14:49.660Z,14.58
2023-03-11T13:18:49.632Z,14.57
2023-03-11T13:22:49.608Z,14.57
2023-03-11T13:26:49.557Z,14.51
2023-03-11T13:30:49.548Z,14.57
2023-03-11T13:34:49.517Z,14.55
2023-03-11T13:38:49.453Z,14.59
2023-03-11T13:42:49.429Z,14.58
2023-03-11T13:46:49.477Z,14.56
2023-03-11T13:50:49.528Z,14.68
2023-03-11T13:54:49.548Z,14.68
2023-03-11T13:58:49.562Z,14.71
2023-03-11T14:02:49.596Z,14.76
2023-03-11T14:06:49.658Z,14.81
2023-03-11T14:10:49.705Z,14.78
2023-03-11T14:14:49.755Z,14.82
2023-03-11T14:18:49.824Z,14.87
2023-03-11T14:22:49.909Z,14.85
2023-03-11T14:26:50.021Z,14.88
2023-03-11T14:30:50.029Z,14.88
2023-03-11T14:34:50.153Z,14.89
2023-03-11T14:38:50.284Z,14.91
2023-03-11T14:42:50.397Z,14.85
2023-03-11T14:46:50.503Z,14.95
2023-03-11T14:50:50.627Z,14.96
2023-03-11T14:54:50.789Z,14.87
2023-03-11T14:59:01.655Z,14.95
2023-03-11T15:02:51.890Z,14.92
2023-03-11T15:06:50.856Z,14.92
2023-03-11T15:10:50.933Z,14.91
2023-03-11T15:14:51.202Z,14.88
2023-03-11T15:18:51.306Z,14.85
2023-03-11T15:22:51.481Z,14.88
2023-03-11T15:26:51.682Z,14.82
2023-03-11T15:30:51.932Z,14.85
2023-03-11T15:34:52.096Z,14.85
2023-03-11T15:38:52.308Z,14.79
2023-03-11T15:42:52.234Z,14.76
2023-03-11T15:46:52.211Z,14.85
2023-03-11T15:50:53.654Z,14.87
2023-03-11T15:54:55.972Z,14.90
2023-03-11T15:58:52.127Z,14.90
2023-03-11T16:02:52.108Z,14.86
2023-03-11T16:07:06.877Z,14.89
2023-03-11T16:10:53.091Z,14.83
2023-03-11T16:14:52.040Z,14.87
2023-03-11T16:18:52.146Z,14.89
2023-03-11T16:22:52.330Z,14.81
2023-03-11T16:26:52.317Z,14.84
2023-03-11T16:30:52.395Z,14.76
2023-03-11T16:34:52.394Z,14.80
2023-03-11T16:38:52.375Z,14.82
2023-03-11T16:42:52.445Z,14.77
2023-03-11T16:46:52.363Z,14.85
2023-03-11T16:50:52.402Z,14.76
2023-03-11T16:54:52.389Z,14.79
2023-03-11T16:58:52.481Z,14.85
2023-03-11T17:02:52.465Z,14.85
2023-03-11T17:06:52.500Z,14.80
2023-03-11T17:10:52.563Z,14.80
2023-03-11T17:14:52.569Z,14.81
2023-03-11T17:18:52.642Z,14.86
2023-03-11T17:22:52.718Z,14.89
2023-03-11T17:26:52.867Z,14.86
2023-03-11T17:30:52.897Z,14.84
2023-03-11T17:34:52.940Z,14.86
2023-03-11T17:38:53.053Z,14.87
2023-03-11T17:42:53.316Z,14.90
2023-03-11T17:46:53.388Z,14.81
2023-03-11T17:50:53.349Z,14.88
2023-03-11T17:54:53.430Z,14.84
2023-03-11T17:58:53.415Z,14.90
2023-03-11T18:02:53.391Z,14.87
2023-03-11T18:06:53.417Z,14.88
2023-03-11T18:10:53.339Z,14.85
2023-03-11T18:14:53.340Z,14.90
2023-03-11T18:18:53.253Z,14.90
2023-03-11T18:22:53.174Z,14.90
2023-03-11T18:26:53.135Z,14.90
2023-03-11T18:30:53.113Z,14.86
2023-03-11T18:34:53.109Z,14.90
2023-03-11T18:38:53.048Z,14.91
2023-03-11T18:42:53.026Z,15.03
2023-03-11T18:46:53.068Z,15.00
2023-03-11T18:50:53.002Z,15.12
2023-03-11T18:54:53.040Z,15.15
2023-03-11T18:58:53.165Z,15.17
2023-03-11T19:02:53.440Z,15.21
2023-03-11T19:06:53.477Z,15.27
2023-03-11T19:10:53.672Z,15.38
2023-03-11T19:14:53.786Z,15.41
2023-03-11T19:18:53.989Z,15.41
2023-03-11T19:22:54.196Z,15.45
2023-03-11T19:26:55.905Z,15.52
2023-03-11T19:30:54.581Z,15.59
2023-03-11T19:34:54.727Z,15.57
2023-03-11T19:38:54.881Z,15.68
2023-03-11T19:42:55.121Z,15.77
2023-03-11T19:46:55.309Z,15.83
2023-03-11T19:50:55.423Z,15.80
2023-03-11T19:54:55.638Z,15.86
2023-03-11T19:58:55.780Z,15.88
2023-03-11T20:02:55.999Z,15.93
2023-03-11T20:06:56.190Z,15.89
2023-03-11T20:10:56.164Z,15.97
2023-03-11T20:14:56.103Z,16.02
2023-03-11T20:18:56.068Z,15.99
2023-03-11T20:22:56.070Z,15.99
2023-03-11T20:26:56.014Z,16.03
2023-03-11T20:30:56.057Z,16.00
2023-03-11T20:34:55.928Z,16.09
2023-03-11T20:38:55.889Z,16.11
2023-03-11T20:42:55.906Z,16.11
2023-03-11T20:46:55.888Z,16.13
2023-03-11T20:50:55.840Z,16.12
2023-03-11T20:54:55.773Z,16.20
2023-03-11T20:58:56.016Z,16.20
2023-03-11T21:02:56.151Z,16.29
2023-03-11T21:06:56.426Z,16.23
2023-03-11T21:10:56.470Z,16.32
2023-03-11T21:14:56.795Z,16.27
2023-03-11T21:18:56.875Z,16.33
2023-03-11T21:22:57.027Z,16.29
2023-03-11T21:26:57.268Z,16.30
2023-03-11T21:30:57.497Z,16.32
2023-03-11T21:34:57.595Z,16.30
2023-03-11T21:38:57.813Z,16.33
2023-03-11T21:42:57.932Z,16.33
2023-03-11T21:46:58.612Z,16.35
2023-03-11T21:50:58.417Z,16.38
2023-03-11T21:54:58.549Z,16.39
2023-03-11T21:58:58.737Z,16.41
2023-03-11T22:02:58.822Z,16.41
2023-03-11T22:06:59.038Z,16.37
2023-03-11T22:10:59.227Z,16.42
2023-03-11T22:14:59.500Z,16.45
2023-03-11T22:18:59.626Z,16.37
2023-03-11T22:22:59.794Z,16.45
2023-03-11T22:27:00.467Z,16.45
2023-03-11T22:31:00.155Z,16.42
2023-03-11T22:35:00.336Z,16.50
2023-03-11T22:39:00.512Z,16.50
2023-03-11T22:43:00.511Z,16.51
2023-03-11T22:47:00.467Z,16.47
2023-03-11T22:51:00.433Z,16.48
2023-03-11T22:55:00.425Z,16.43
2023-03-11T22:59:00.335Z,16.48
2023-03-11T23:03:00.383Z,16.45
2023-03-11T23:07:00.281Z,16.48
2023-03-11T23:11:00.241Z,16.47
2023-03-11T23:15:00.206Z,16.53
2023-03-11T23:19:00.182Z,16.53
2023-03-11T23:23:00.122Z,16.48
2023-03-11T23:27:00.166Z,16.50
2023-03-11T23:31:00.274Z,16.53
2023-03-11T23:35:00.099Z,16.51
2023-03-11T23:39:00.048Z,16.55
2023-03-11T23:43:00.031Z,16.53
2023-03-11T23:46:59.993Z,16.56
2023-03-11T23:50:59.940Z,16.53
2023-03-11T23:54:59.922Z,16.55
2023-03-11T23:58:59.852Z,16.54
